Time;durP1;ratioP1;P1;durP2;ratioP2;P2;SDS_P1;SDS_P2;PMS_P1;PMS_P2;Temp;Humidity;BMP_temperature;BMP_pressure;BME280_temperature;BME280_humidity;BME280_pressure;Samples;Min_cycle;Max_cycle;Signal;HPM_P1;HPM_P2
2021/07/27 00:00:11;;;;;;;;;;;;;;;17.82;86.74;101175.31;5115264;28;20254;-36
2021/07/27 00:02:36;;;;;;;44.80;32.28;;;;;;;17.67;88.25;101179.66;5115035;28;19977;-36
2021/07/27 00:05:02;;;;;;;;;;;;;;;17.78;87.13;101179.69;5113883;28;20024;-36
2021/07/27 00:07:27;;;;;;;50.35;37.08;;;;;;;17.55;89.20;101189.16;5114609;28;19908;-36
2021/07/27 00:09:52;;;;;;;;;;;;;;;17.67;87.35;101184.28;5114993;28;20039;-36
2021/07/27 00:12:18;;;;;;;42.57;32.13;;;;;;;17.57;89.02;101184.25;5114521;28;20349;-36
2021/07/27 00:14:43;;;;;;;;;;;;;;;17.66;87.85;101182.63;5114725;28;20276;-36
2021/07/27 00:17:08;;;;;;;43.93;32.33;;;;;;;17.54;89.06;101179.34;5115105;27;19907;-36
2021/07/27 00:19:34;;;;;;;44.75;34.08;;;;;;;17.54;89.27;101171.94;5114757;28;20338;-36
2021/07/27 00:21:59;;;;;;;49.42;33.67;;;;;;;17.57;89.49;101174.16;5114831;28;20023;-36
2021/07/27 00:24:26;;;;;;;;;;;;;;;17.66;87.93;101183.44;5114297;28;20016;-36
2021/07/27 00:26:54;;;;;;;41.38;30.25;;;;;;;17.54;89.15;101166.47;5114393;28;19914;-36
2021/07/27 00:29:21;;;;;;;41.13;31.65;;;;;;;17.61;89.49;101179.88;5114256;28;20106;-36
2021/07/27 00:31:46;;;;;;;40.53;31.48;;;;;;;17.59;89.68;101177.44;5114267;28;20092;-36
2021/07/27 00:34:11;;;;;;;;;;;;;;;17.69;88.14;101182.91;5115309;28;20019;-36
2021/07/27 00:36:36;;;;;;;36.87;30.07;;;;;;;17.58;89.38;101181.25;5113934;28;19903;-36
2021/07/27 00:39:02;;;;;;;;;;;;;;;17.72;88.32;101182.38;5114550;28;20027;-36
2021/07/27 00:41:27;;;;;;;39.25;30.85;;;;;;;17.60;89.21;101181.81;5113992;28;19904;-36
2021/07/27 00:43:52;;;;;;;;;;;;;;;17.73;87.81;101188.72;5114476;28;20103;-37
2021/07/27 00:46:18;;;;;;;37.67;29.50;;;;;;;17.61;89.57;101180.69;5113733;28;19912;-36
2021/07/27 00:48:43;;;;;;;;;;;;;;;17.72;87.68;101187.84;5114985;28;20280;-36
2021/07/27 00:51:09;;;;;;;38.42;30.58;;;;;;;17.55;89.43;101175.50;5113906;28;19942;-36
2021/07/27 00:53:34;;;;;;;;;;;;;;;17.75;87.88;101186.50;5114605;28;20076;-36
2021/07/27 00:56:00;;;;;;;42.38;30.42;;;;;;;17.54;89.61;101168.41;5113779;28;19907;-36
2021/07/27 00:58:25;;;;;;;;;;;;;;;17.70;87.69;101181.81;5114487;28;20499;-36
2021/07/27 01:00:50;;;;;;;36.37;28.53;;;;;;;17.61;88.59;101180.69;5114399;28;19907;-36
2021/07/27 01:03:16;;;;;;;;;;;;;;;17.68;87.68;101169.53;5114621;28;20425;-36
2021/07/27 01:05:41;;;;;;;39.22;29.92;;;;;;;17.58;89.52;101158.56;5114276;28;19908;-36
2021/07/27 01:08:06;;;;;;;;;;;;;;;17.65;87.94;101159.94;5113767;28;20110;-36
2021/07/27 01:10:32;;;;;;;40.13;30.00;;;;;;;17.46;89.22;101143.22;5113790;28;20363;-36
2021/07/27 01:12:57;;;;;;;;;;;;;;;17.64;87.80;101163.75;5113719;28;20085;-36
2021/07/27 01:15:23;;;;;;;39.13;29.88;;;;;;;17.48;89.71;101153.91;5113293;28;19939;-36
2021/07/27 01:17:50;;;;;;;;;;;;;;;17.63;87.93;101158.56;5113938;28;20347;-36
2021/07/27 01:20:45;;;;;;;40.40;29.05;;;;;;;17.46;89.23;101139.66;5113861;28;20293;-36
2021/07/27 01:39:38;;;;;;;33.78;26.77;;;;;;;17.53;89.39;101142.16;5117998;28;20035;-36
2021/07/27 01:42:09;;;;;;;34.47;27.75;;;;;;;17.34;89.80;101139.91;5117314;28;20024;-36
2021/07/27 01:44:42;;;;;;;36.25;28.83;;;;;;;17.35;89.60;101127.88;5116584;28;20019;-36
2021/07/27 01:47:08;;;;;;;36.20;28.42;;;;;;;17.32;90.03;101135.78;5117609;28;20020;-36
2021/07/27 01:49:33;;;;;;;39.22;28.23;;;;;;;17.25;90.12;101123.19;5117392;28;20011;-36
2021/07/27 01:51:58;;;;;;;;;;;;;;;17.42;88.71;101130.34;5118639;28;20019;-36
2021/07/27 01:54:29;;;;;;;30.48;23.98;;;;;;;17.26;89.80;101110.34;5117030;28;19904;-36
2021/07/27 01:56:55;;;;;;;35.15;27.35;;;;;;;17.20;90.20;101127.84;5117125;28;20032;-36
2021/07/27 01:59:20;;;;;;;32.95;26.58;;;;;;;17.23;90.22;101130.84;5117159;28;20023;-36
2021/07/27 02:01:46;;;;;;;;;;;;;;;17.33;88.93;101129.25;5118196;28;20079;-36
2021/07/27 02:04:11;;;;;;;38.90;27.65;;;;;;;17.13;90.11;101129.97;5117123;28;20010;-36
2021/07/27 02:06:40;;;;;;;36.92;28.75;;;;;;;17.05;90.64;101125.88;5116853;28;20515;-36
2021/07/27 02:09:06;;;;;;;37.45;27.95;;;;;;;17.09;90.44;101117.97;5117667;28;20020;-36
2021/07/27 02:11:41;;;;;;;39.10;26.88;;;;;;;16.97;90.01;101104.53;5117605;27;20066;-36
2021/07/27 02:14:06;;;;;;;37.67;29.48;;;;;;;17.08;90.26;101124.50;5116919;28;20024;-36
2021/07/27 02:16:35;;;;;;;38.65;28.95;;;;;;;16.92;90.95;101115.44;5117217;28;20028;-36
2021/07/27 02:19:01;;;;;;;38.90;29.33;;;;;;;16.89;91.18;101125.00;5116947;28;20393;-36
2021/07/27 02:21:26;;;;;;;38.35;29.05;;;;;;;16.91;91.56;101127.44;5117549;27;20027;-36
2021/07/27 02:23:52;;;;;;;41.47;30.83;;;;;;;16.87;91.63;101112.66;5116435;28;20387;-36
2021/07/27 02:26:17;;;;;;;37.60;29.85;;;;;;;16.95;91.23;101126.66;5115535;28;20297;-36
2021/07/27 02:28:42;;;;;;;;;;;;;;;17.05;89.89;101122.31;5116632;27;20027;-36
2021/07/27 02:31:13;;;;;;;30.37;25.43;;;;;;;16.93;91.10;101120.66;5116923;28;19954;-36
2021/07/27 02:33:38;;;;;;;40.85;28.48;;;;;;;16.91;91.67;101116.53;5116503;28;20024;-36
2021/07/27 02:36:04;;;;;;;34.63;29.40;;;;;;;16.87;91.89;101120.88;5116462;28;20030;-36
2021/07/27 02:38:29;;;;;;;;;;;;;;;16.96;89.89;101124.72;5117062;28;20095;-36
2021/07/27 02:40:54;;;;;;;38.93;29.97;;;;;;;16.77;91.56;101129.84;5116098;28;19908;-36
2021/07/27 02:43:20;;;;;;;;;;;;;;;16.91;90.38;101125.53;5116954;28;20019;-36
2021/07/27 02:45:45;;;;;;;37.63;27.90;;;;;;;16.73;91.78;101134.19;5116587;27;20064;-36
2021/07/27 02:48:10;;;;;;;36.85;29.55;;;;;;;16.72;91.84;101141.53;5114983;28;20291;-36
2021/07/27 02:50:35;;;;;;;;;;;;;;;16.80;90.97;101142.16;5116305;28;20039;-36
2021/07/27 02:53:01;;;;;;;33.30;26.53;;;;;;;16.78;92.47;101138.84;5116388;28;19903;-36
2021/07/27 02:55:27;;;;;;;;;;;;;;;16.82;90.51;101139.97;5116464;28;20135;-36
2021/07/27 02:57:52;;;;;;;35.65;27.35;;;;;;;16.72;92.67;101138.81;5116038;28;19911;-36
2021/07/27 03:00:18;;;;;;;;;;;;;;;16.82;90.77;101137.22;5116701;28;20375;-36
2021/07/27 03:02:47;;;;;;;35.60;25.92;;;;;;;16.72;91.94;101127.91;5115550;28;20251;-36
2021/07/27 03:05:14;;;;;;;33.35;27.75;;;;;;;16.57;92.37;101116.84;5116045;28;20027;-36
2021/07/27 03:10:23;;;;;;;32.20;26.85;;;;;;;16.67;92.70;101146.94;5116155;28;20375;-36
2021/07/27 03:12:53;;;;;;;33.47;27.42;;;;;;;16.64;93.08;101139.31;5116188;27;20022;-36
2021/07/27 03:15:23;;;;;;;31.98;24.52;;;;;;;16.63;93.00;101134.91;5115504;28;20507;-36
2021/07/27 03:17:53;;;;;;;36.72;27.90;;;;;;;16.53;93.29;101139.50;5115617;28;20039;-36
2021/07/27 03:20:18;;;;;;;36.30;27.63;;;;;;;16.38;93.04;101113.75;5116412;28;20023;-36
2021/07/27 03:22:44;;;;;;;38.15;28.40;;;;;;;16.53;93.06;101137.56;5115977;28;20019;-36
2021/07/27 03:25:14;;;;;;;32.65;27.25;;;;;;;16.54;92.83;101150.13;5115683;27;20065;-36
2021/07/27 03:27:40;;;;;;;35.30;26.33;;;;;;;16.42;93.47;101135.88;5115276;28;20057;-36
2021/07/27 03:30:06;;;;;;;33.17;25.33;;;;;;;16.45;93.08;101141.63;5115789;28;20054;-36
2021/07/27 03:32:33;;;;;;;35.85;26.17;;;;;;;16.43;93.36;101151.16;5115542;28;20038;-36
2021/07/27 03:34:59;;;;;;;36.70;27.42;;;;;;;16.42;93.52;101153.06;5114057;28;20123;-36
2021/07/27 03:37:24;;;;;;;34.83;26.07;;;;;;;16.46;92.93;101151.47;5115796;28;20072;-36
2021/07/27 03:39:49;;;;;;;35.67;26.43;;;;;;;16.48;92.86;101141.09;5114970;28;20586;-36
2021/07/27 03:42:14;;;;;;;;;;;;;;;16.54;92.40;101150.13;5115908;28;20027;-36
2021/07/27 03:44:40;;;;;;;31.23;25.20;;;;;;;16.36;92.75;101132.28;5115314;28;20017;-36
2021/07/27 03:47:07;;;;;;;32.88;25.70;;;;;;;16.37;93.19;101146.75;5115200;28;20391;-36
2021/07/27 03:49:33;;;;;;;31.50;25.55;;;;;;;16.33;93.19;101143.72;5115411;28;20024;-36
2021/07/27 03:52:03;;;;;;;30.48;24.08;;;;;;;16.36;93.59;101136.94;5114686;28;20020;-36
2021/07/27 03:54:30;;;;;;;31.55;24.92;;;;;;;16.34;93.03;101139.09;5115322;28;20016;-36
2021/07/27 03:56:56;;;;;;;28.88;23.63;;;;;;;16.38;92.93;101145.66;5115261;28;20027;-36
2021/07/27 03:59:22;;;;;;;27.88;23.75;;;;;;;16.39;92.42;101147.31;5114678;28;20096;-36
2021/07/27 04:01:48;;;;;;;30.95;23.73;;;;;;;16.37;92.26;101133.13;5114561;28;20493;-36
2021/07/27 04:04:15;;;;;;;29.33;22.50;;;;;;;16.43;92.54;101134.78;5114736;28;20027;-36
2021/07/27 04:06:41;;;;;;;27.20;22.77;;;;;;;16.42;92.30;101138.59;5114587;28;20043;-36
2021/07/27 04:09:06;;;;;;;30.30;23.45;;;;;;;16.50;92.17;101142.75;5114575;28;20359;-36
2021/07/27 04:11:31;;;;;;;32.80;23.40;;;;;;;16.48;92.15;101140.28;5114240;28;20088;-36
2021/07/27 04:13:56;;;;;;;26.55;22.33;;;;;;;16.38;92.20;101123.84;5114496;28;20303;-36
2021/07/27 04:16:22;;;;;;;29.73;22.45;;;;;;;16.52;91.87;101138.66;5115094;28;20084;-36
2021/07/27 04:18:53;;;;;;;;;;;;;;;16.57;91.58;101146.06;5115456;28;20028;-36
2021/07/27 04:21:18;;;;;;;29.10;22.95;;;;;;;16.50;92.25;101142.75;5114796;27;20292;-36
2021/07/27 04:23:44;;;;;;;26.60;21.60;;;;;;;16.45;91.62;101130.72;5114094;28;20110;-36
2021/07/27 04:26:09;;;;;;;27.07;20.70;;;;;;;16.50;91.49;101140.03;5114900;28;20126;-36
2021/07/27 04:28:34;;;;;;;29.25;21.05;;;;;;;16.48;92.09;101134.81;5114129;28;20281;-36
2021/07/27 04:30:59;;;;;;;;;;;;;;;16.60;91.37;101138.19;5114760;28;20149;-36
2021/07/27 04:33:27;;;;;;;25.70;21.10;;;;;;;16.48;91.87;101145.75;5113957;28;19911;-36
2021/07/27 04:35:53;;;;;;;29.52;22.83;;;;;;;16.45;92.26;101140.81;5114135;28;20024;-36
2021/07/27 04:38:22;;;;;;;24.13;20.77;;;;;;;16.50;92.13;101140.84;5114160;28;20023;-36
2021/07/27 04:40:47;;;;;;;28.48;21.55;;;;;;;16.41;92.61;101128.78;5114362;28;20012;-36
2021/07/27 04:43:13;;;;;;;30.83;22.30;;;;;;;16.49;92.71;101139.19;5113939;28;20072;-36
2021/07/27 04:45:39;;;;;;;;;;;;;;;16.62;91.44;101137.91;5114607;27;20034;-36
2021/07/27 04:48:05;;;;;;;28.50;22.52;;;;;;;16.53;92.20;101137.56;5113938;28;19907;-36
2021/07/27 04:50:30;;;;;;;;;;;;;;;16.65;91.66;101130.03;5114657;28;20023;-36
2021/07/27 04:52:59;;;;;;;28.60;21.10;;;;;;;16.61;91.95;101117.16;5113875;28;19907;-36
2021/07/27 04:55:25;;;;;;;26.42;22.50;;;;;;;16.54;92.31;101119.28;5114375;28;20253;-36
2021/07/27 04:57:51;;;;;;;28.48;22.17;;;;;;;16.52;91.79;101119.56;5113808;27;20161;-36
2021/07/27 05:00:24;;;;;;;30.65;23.10;;;;;;;16.59;91.90;101124.78;5113829;28;20039;-36
2021/07/27 05:02:49;;;;;;;27.20;22.13;;;;;;;16.68;91.00;101124.00;5113475;28;20011;-36
2021/07/27 05:05:15;;;;;;;27.23;20.98;;;;;;;16.67;90.83;101116.91;5113677;28;20035;-36
2021/07/27 05:07:43;;;;;;;;;;;;;;;16.81;90.34;101116.47;5113978;28;20102;-36
2021/07/27 05:10:08;;;;;;;;;;;;;;;16.85;90.31;101114.84;5113631;28;19911;-37
2021/07/27 05:12:36;;;;;;;23.98;20.02;;;;;;;16.79;89.97;101124.09;5113574;28;19918;-36
2021/07/27 05:15:03;;;;;;;24.17;19.83;;;;;;;16.88;90.22;101127.97;5113840;28;20027;-36
2021/07/27 05:17:28;;;;;;;27.70;20.90;;;;;;;16.77;90.10;101110.72;5113575;28;20057;-36
2021/07/27 05:19:54;;;;;;;25.33;20.50;;;;;;;16.97;89.20;101129.09;5113456;28;20382;-36
2021/07/27 05:22:23;;;;;;;;;;;;;;;17.13;89.27;101128.09;5114408;28;20023;-36
2021/07/27 05:24:49;;;;;;;24.20;20.15;;;;;;;17.06;88.77;101113.03;5113052;28;19911;-36
2021/07/27 05:27:15;;;;;;;25.63;21.58;;;;;;;17.09;89.18;101124.25;5113497;28;20360;-36
2021/07/27 05:29:40;;;;;;;29.23;21.45;;;;;;;17.17;88.56;101134.66;5113785;28;20047;-36
2021/07/27 05:32:06;;;;;;;24.95;21.13;;;;;;;17.26;88.48;101118.56;5113180;28;20023;-36
2021/07/27 05:34:31;;;;;;;25.80;20.55;;;;;;;17.28;88.44;101118.31;5112983;28;20464;-36
2021/07/27 05:36:56;;;;;;;;;;;;;;;17.44;88.40;101114.50;5113460;28;20030;-36
2021/07/27 05:39:22;;;;;;;25.50;20.37;;;;;;;17.33;88.01;101112.84;5112929;28;19948;-36
2021/07/27 05:41:47;;;;;;;;;;;;;;;17.60;88.12;101134.50;5114026;28;20098;-36
2021/07/27 05:44:12;;;;;;;23.67;18.47;;;;;;;17.56;88.21;101126.00;5113210;28;20441;-36
2021/07/27 05:46:37;;;;;;;;;;;;;;;17.69;88.08;101122.75;5113682;28;20019;-36
2021/07/27 05:49:04;;;;;;;27.63;20.33;;;;;;;17.59;88.54;101127.38;5113096;28;19908;-36
2021/07/27 05:51:30;;;;;;;25.48;20.52;;;;;;;17.55;88.80;101118.91;5113157;28;20088;-36
2021/07/27 05:53:56;;;;;;;;;;;;;;;17.69;88.36;101122.75;5113757;28;20070;-36
2021/07/27 05:56:21;;;;;;;26.55;20.90;;;;;;;17.51;88.79;101113.16;5113398;28;19951;-36
2021/07/27 05:58:47;;;;;;;;;;;;;;;17.69;88.39;101127.41;5113818;28;20485;-36
2021/07/27 06:01:12;;;;;;;29.40;20.90;;;;;;;17.59;88.80;101111.81;5113812;28;19973;-36
2021/07/27 06:03:37;;;;;;;;;;;;;;;17.73;88.10;101121.16;5113117;28;20526;-36
2021/07/27 06:06:03;;;;;;;30.38;21.67;;;;;;;17.49;87.90;101122.72;5113257;28;19956;-36
2021/07/27 06:08:28;;;;;;;;;;;;;;;17.61;87.59;101123.28;5113747;28;20114;-36
2021/07/27 06:10:53;;;;;;;27.52;21.95;;;;;;;17.53;88.21;101126.56;5112689;28;19912;-36
2021/07/27 06:13:18;;;;;;;;;;;;;;;17.61;88.03;101125.19;5113300;28;20425;-36
2021/07/27 06:15:44;;;;;;;26.93;21.63;;;;;;;17.47;88.31;101122.16;5113300;28;20235;-36
2021/07/27 06:18:09;;;;;;;;;;;;;;;17.58;87.78;101128.50;5113863;28;20352;-36
2021/07/27 06:20:34;;;;;;;25.33;20.93;;;;;;;17.56;88.46;101127.91;5113201;28;20343;-36
2021/07/27 06:23:00;;;;;;;27.17;22.58;;;;;;;17.62;88.57;101122.22;5116426;28;20756;-36
2021/07/27 06:25:25;;;;;;;;;;;;;;;17.73;88.25;101126.63;5117297;28;20194;-36
2021/07/27 06:27:51;;;;;;;29.10;22.27;;;;;;;17.66;88.49;101131.47;5116458;28;19969;-36
2021/07/27 06:30:16;;;;;;;;;;;;;;;17.73;88.13;101125.81;5117677;28;20261;-36
2021/07/27 06:32:41;;;;;;;27.17;20.65;;;;;;;17.63;89.04;101131.22;5116905;28;19946;-36
2021/07/27 06:35:07;;;;;;;;;;;;;;;17.82;88.22;101128.81;5117140;28;20027;-36
2021/07/27 06:37:32;;;;;;;25.27;18.00;;;;;;;17.89;88.30;101127.44;5116243;28;20328;-36
2021/07/27 06:39:57;;;;;;;;;;;;;;;18.02;87.54;101134.31;5116466;28;20460;-36
2021/07/27 06:42:22;;;;;;;25.77;19.05;;;;;;;17.92;87.34;101135.13;5115918;28;19907;-36
2021/07/27 06:44:48;;;;;;;;;;;;;;;18.01;87.31;101135.41;5116351;28;20046;-36
2021/07/27 06:47:13;;;;;;;28.50;19.20;;;;;;;17.91;88.02;101136.22;5116323;28;19910;-36
2021/07/27 06:49:38;;;;;;;;;;;;;;;18.06;87.27;101137.31;5116135;28;20027;-36
2021/07/27 06:52:04;;;;;;;23.27;18.75;;;;;;;18.00;88.02;101133.72;5116649;28;19904;-36
2021/07/27 06:54:29;;;;;;;;;;;;;;;18.14;87.70;101139.50;5116762;27;20432;-36
2021/07/27 06:56:55;;;;;;;28.88;19.88;;;;;;;17.98;87.55;101131.28;5116205;28;19903;-36
2021/07/27 06:59:22;;;;;;;25.33;20.33;;;;;;;18.02;87.50;101132.38;5115620;28;20379;-36
2021/07/27 07:01:49;;;;;;;23.70;19.25;;;;;;;18.08;86.86;101135.13;5116119;28;20137;-36
2021/07/27 07:04:14;;;;;;;27.55;19.98;;;;;;;18.01;87.03;101127.19;5115797;28;20022;-36
2021/07/27 07:06:40;;;;;;;;;;;;;;;18.19;86.80;101143.03;5116208;28;20020;-36
2021/07/27 07:09:05;;;;;;;24.92;19.52;;;;;;;18.09;87.36;101142.22;5115402;28;19918;-36
2021/07/27 07:11:30;;;;;;;;;;;;;;;18.14;86.73;101140.31;5115876;28;20494;-36
2021/07/27 07:13:56;;;;;;;26.60;17.75;;;;;;;17.97;87.41;101134.31;5116287;28;19966;-36
2021/07/27 07:16:21;;;;;;;;;;;;;;;18.11;87.33;101146.34;5116815;27;20542;-36
2021/07/27 07:18:47;;;;;;;27.00;18.40;;;;;;;17.97;87.56;101146.06;5114671;28;19914;-36
2021/07/27 07:21:12;;;;;;;;;;;;;;;18.08;87.05;101154.28;5116415;28;20091;-36
2021/07/27 07:23:37;;;;;;;25.20;18.73;;;;;;;18.01;87.70;101146.34;5115838;28;19915;-36
2021/07/27 07:26:06;;;;;;;;;;;;;;;18.11;87.38;101151.81;5116563;28;20043;-36
2021/07/27 07:28:32;;;;;;;26.30;18.98;;;;;;;18.15;88.27;101152.88;5115686;28;19953;-36
2021/07/27 07:30:57;;;;;;;;;;;;;;;18.30;87.52;101149.34;5116487;27;20023;-36
2021/07/27 07:33:22;;;;;;;22.63;18.67;;;;;;;18.38;86.71;101150.69;5114753;28;19904;-36
2021/07/27 07:35:47;;;;;;;;;;;;;;;18.52;86.65;101149.03;5116513;28;20254;-36
2021/07/27 07:38:13;;;;;;;22.57;18.57;;;;;;;18.55;85.91;101142.19;5115249;28;19951;-36
2021/07/27 07:40:38;;;;;;;;;;;;;;;18.72;86.27;101139.97;5115349;28;20266;-36
2021/07/27 07:43:03;;;;;;;21.73;18.37;;;;;;;18.77;84.24;101138.03;5115396;28;19904;-36
2021/07/27 07:45:29;;;;;;;;;;;;;;;18.90;85.43;101136.63;5115230;28;20302;-36
2021/07/27 07:47:55;;;;;;;22.60;18.65;;;;;;;18.91;84.52;101131.97;5114875;28;19908;-36
2021/07/27 07:50:21;;;;;;;;;;;;;;;19.10;85.30;101123.97;5115394;28;20080;-36
2021/07/27 07:52:55;;;;;;;23.45;17.83;;;;;;;19.32;83.55;101126.31;5115604;28;20337;-36
2021/07/27 07:55:21;;;;;;;21.33;17.38;;;;;;;19.36;82.90;101105.44;5115123;28;20024;-35
2021/07/27 07:57:46;;;;;;;;;;;;;;;19.58;83.73;101122.31;5115056;28;20046;-36
2021/07/27 08:00:12;;;;;;;20.40;15.33;;;;;;;19.48;81.50;101117.72;5114794;28;19903;-36
2021/07/27 08:02:37;;;;;;;;;;;;;;;19.71;81.95;101126.34;5115060;28;20279;-35
2021/07/27 08:05:02;;;;;;;17.77;14.17;;;;;;;19.69;79.98;101132.16;5114679;28;19903;-35
2021/07/27 08:07:27;;;;;;;;;;;;;;;19.78;80.79;101140.59;5115068;28;20265;-35
2021/07/27 08:09:53;;;;;;;17.33;14.27;;;;;;;19.54;79.32;101132.22;5114618;28;19907;-36
2021/07/27 08:12:18;;;;;;;16.60;14.63;;;;;;;19.53;78.98;101128.66;5114483;27;20413;-36
2021/07/27 08:14:44;;;;;;;;;;;;;;;19.68;79.71;101130.50;5115399;28;20027;-36
2021/07/27 08:17:12;;;;;;;16.33;14.05;;;;;;;19.63;79.08;101137.97;5114904;28;20255;-36
2021/07/27 08:19:39;;;;;;;16.05;13.98;;;;;;;19.60;78.12;101120.13;5114327;28;20019;-36
2021/07/27 08:22:05;;;;;;;15.65;13.20;;;;;;;19.83;79.43;101134.25;5114600;28;20041;-36
2021/07/27 08:24:32;;;;;;;15.85;13.35;;;;;;;19.79;76.76;101126.56;5114414;28;20020;-36
2021/07/27 08:26:57;;;;;;;16.63;12.95;;;;;;;19.93;76.32;101131.44;5114567;28;20106;-36
2021/07/27 08:29:22;;;;;;;;;;;;;;;20.12;78.23;101128.81;5114639;28;20141;-35
2021/07/27 08:31:49;;;;;;;18.33;12.70;;;;;;;20.10;76.07;101125.50;5114642;28;20010;-36
2021/07/27 08:34:17;;;;;;;15.70;12.57;;;;;;;20.03;76.56;101120.34;5114247;28;20276;-35
2021/07/27 08:36:46;;;;;;;16.27;12.80;;;;;;;20.04;77.56;101116.50;5114736;28;20019;-36
2021/07/27 08:39:13;;;;;;;14.60;12.98;;;;;;;20.17;77.69;101113.09;5113928;28;20030;-36
2021/07/27 08:41:39;;;;;;;16.05;11.60;;;;;;;20.54;75.72;101122.63;5114159;28;20020;-36
2021/07/27 08:44:07;;;;;;;20.00;13.00;;;;;;;20.67;75.48;101119.22;5113688;28;20406;-38
2021/07/27 08:46:33;;;;;;;14.63;13.05;;;;;;;20.78;73.79;101109.72;5113692;28;20024;-36
2021/07/27 08:48:58;;;;;;;;;;;;;;;20.95;76.09;101120.25;5114123;28;20077;-36
2021/07/27 08:51:24;;;;;;;13.10;11.50;;;;;;;20.93;73.96;101116.97;5114017;28;19908;-36
2021/07/27 08:53:50;;;;;;;15.88;11.80;;;;;;;20.94;72.33;101118.63;5113732;28;20464;-38
2021/07/27 08:56:16;;;;;;;15.95;12.82;;;;;;;20.92;71.63;101123.59;5113699;28;20035;-36
2021/07/27 08:58:41;;;;;;;;;;;;;;;21.01;72.38;101130.06;5114033;28;20020;-36
2021/07/27 09:01:07;;;;;;;13.20;11.32;;;;;;;20.93;71.53;101124.41;5113636;28;20335;-36
2021/07/27 09:03:32;;;;;;;;;;;;;;;21.11;71.70;101129.13;5113916;28;20057;-36
2021/07/27 09:06:05;;;;;;;14.77;11.13;;;;;;;21.04;71.96;101121.25;5113721;27;19907;-36
2021/07/27 09:08:31;;;;;;;13.00;11.30;;;;;;;21.16;72.08;101126.31;5113250;28;20460;-36
2021/07/27 09:11:00;;;;;;;;;;;;;;;21.36;72.86;101136.25;5114006;28;20043;-36
2021/07/27 09:13:32;;;;;;;13.98;12.05;;;;;;;21.27;71.10;101127.78;5113369;28;19925;-36
2021/07/27 09:15:57;;;;;;;14.20;12.70;;;;;;;21.12;70.68;101132.69;5113434;28;20065;-36
2021/07/27 09:18:23;;;;;;;;;;;;;;;21.26;72.24;101133.59;5113835;28;20020;-36
2021/07/27 09:20:50;;;;;;;15.25;12.80;;;;;;;21.08;71.34;101124.19;5113427;28;19915;-35
2021/07/27 09:23:17;;;;;;;16.30;11.55;;;;;;;21.13;70.55;101115.91;5113565;28;20098;-36
2021/07/27 09:25:45;;;;;;;13.32;10.07;;;;;;;21.44;70.05;101132.84;5113117;28;20459;-36
2021/07/27 09:28:11;;;;;;;12.68;10.80;;;;;;;21.66;68.72;101120.41;5113448;28;20023;-35
2021/07/27 09:30:39;;;;;;;11.52;10.32;;;;;;;21.92;67.98;101120.84;5113623;28;20405;-36
2021/07/27 09:33:06;;;;;;;14.55;9.75;;;;;;;21.97;66.92;101118.00;5112991;28;20098;-36
2021/07/27 09:35:32;;;;;;;17.33;11.65;;;;;;;21.99;67.09;101118.50;5113794;28;20136;-36
2021/07/27 09:38:13;;;;;;;16.05;11.18;;;;;;;22.03;67.12;101128.63;5113279;28;20067;-36
2021/07/27 09:40:55;;;;;;;14.77;10.25;;;;;;;22.19;67.57;101120.13;5113628;28;20026;-36
2021/07/27 09:43:26;;;;;;;13.70;10.45;;;;;;;22.17;66.76;101128.69;5113512;28;20022;-36
2021/07/27 09:45:56;;;;;;;11.90;9.95;;;;;;;22.20;67.28;101124.50;5113614;28;20035;-36
2021/07/27 09:48:23;;;;;;;14.52;10.35;;;;;;;22.13;66.58;101135.91;5113922;28;20027;-36
2021/07/27 09:50:50;;;;;;;17.95;11.10;;;;;;;21.97;66.90;101131.78;5113758;28;20094;-36
2021/07/27 09:53:16;;;;;;;12.07;10.05;;;;;;;21.91;67.88;101141.19;5113120;28;20196;-36
2021/07/27 09:55:41;;;;;;;13.00;11.35;;;;;;;21.70;66.63;101129.69;5113859;28;20024;-36
2021/07/27 09:58:07;;;;;;;12.73;10.73;;;;;;;21.58;67.06;101146.69;5116950;28;20516;-36
2021/07/27 10:00:57;;;;;;;14.30;10.60;;;;;;;21.50;68.80;101142.66;5116960;28;20035;-36
2021/07/27 10:03:28;;;;;;;16.60;11.23;;;;;;;21.23;67.71;101134.22;5116918;28;20103;-36
2021/07/27 10:06:01;;;;;;;12.82;11.35;;;;;;;21.07;68.35;101128.88;5117061;28;20019;-35
2021/07/27 10:08:31;;;;;;;18.63;11.05;;;;;;;21.12;68.50;101129.94;5116848;28;20475;-36
2021/07/27 10:11:05;;;;;;;13.60;11.40;;;;;;;21.11;69.43;101129.13;5117146;28;20047;-36
2021/07/27 10:13:36;;;;;;;12.65;11.13;;;;;;;21.13;70.06;101137.91;5115839;28;20479;-36
2021/07/27 10:16:02;;;;;;;14.80;10.75;;;;;;;21.01;69.32;101135.56;5117685;28;20049;-36
2021/07/27 10:18:32;;;;;;;13.48;11.57;;;;;;;21.04;69.62;101156.16;5117040;28;20020;-36
2021/07/27 10:21:15;;;;;;;14.20;10.85;;;;;;;20.94;70.48;101139.81;5117623;28;20308;-36
2021/07/27 10:23:41;;;;;;;14.18;11.57;;;;;;;21.04;69.00;101147.91;5116808;28;20024;-36
2021/07/27 10:26:06;;;;;;;13.48;11.13;;;;;;;21.14;70.74;101144.22;5115612;28;20069;-36
2021/07/27 10:28:32;;;;;;;13.98;11.85;;;;;;;21.30;70.52;101148.41;5116226;28;20519;-36
2021/07/27 10:31:02;;;;;;;14.43;12.07;;;;;;;21.37;70.01;101137.88;5116694;28;20027;-36
2021/07/27 10:33:29;;;;;;;15.50;11.98;;;;;;;21.36;69.32;101135.44;5116247;28;20417;-36
2021/07/27 10:35:57;;;;;;;13.32;11.90;;;;;;;21.50;70.05;101150.09;5116573;28;20045;-36
2021/07/27 10:38:35;;;;;;;17.30;11.85;;;;;;;21.42;69.80;101139.75;5116722;28;20405;-36
2021/07/27 10:41:00;;;;;;;16.55;11.75;;;;;;;21.42;69.99;101153.50;5116113;28;20027;-36
2021/07/27 10:43:26;;;;;;;14.82;12.60;;;;;;;21.31;70.34;101145.38;5116590;28;20031;-36
2021/07/27 10:46:00;;;;;;;17.20;12.70;;;;;;;21.34;70.41;101160.50;5116713;27;20023;-36
2021/07/27 10:48:33;;;;;;;14.82;11.13;;;;;;;21.31;70.30;101167.38;5116829;28;20077;-36
2021/07/27 10:51:00;;;;;;;13.75;12.25;;;;;;;21.30;70.29;101165.75;5116830;28;20523;-36
2021/07/27 10:53:26;;;;;;;14.15;12.70;;;;;;;21.39;70.23;101163.16;5116776;28;20054;-36
2021/07/27 10:55:53;;;;;;;14.25;12.50;;;;;;;21.32;70.06;101135.19;5116580;28;20020;-36
2021/07/27 10:58:19;;;;;;;13.38;12.00;;;;;;;21.35;69.16;101164.88;5116258;28;20085;-36
2021/07/27 11:00:45;;;;;;;14.65;11.00;;;;;;;21.32;68.74;101188.28;5116653;28;20070;-35
2021/07/27 11:03:10;;;;;;;6.20;4.40;;;;;;;20.87;64.65;101197.03;5116365;28;20371;-35
2021/07/27 11:05:36;;;;;;;5.53;3.95;;;;;;;20.45;65.42;101196.59;5116694;27;20031;-35
2021/07/27 11:08:01;;;;;;;6.22;4.18;;;;;;;20.25;67.01;101205.00;5114473;28;20032;-36
2021/07/27 11:10:29;;;;;;;4.60;3.85;;;;;;;19.95;67.74;101203.31;5116587;28;20040;-35
2021/07/27 11:12:56;;;;;;;4.65;4.10;;;;;;;19.87;68.89;101192.94;5115561;28;20098;-35
2021/07/27 11:15:23;;;;;;;5.97;3.97;;;;;;;19.91;68.67;101197.59;5115972;28;20414;-35
2021/07/27 11:18:00;;;;;;;4.10;2.80;;;;;;;20.12;68.34;101202.94;5115517;27;20420;-36
2021/07/27 11:20:27;;;;;;;4.40;3.42;;;;;;;20.21;68.57;101198.47;5116194;28;20034;-36
2021/07/27 11:22:57;;;;;;;4.20;3.22;;;;;;;20.30;68.21;101205.81;5114554;28;20119;-36
2021/07/27 11:25:25;;;;;;;4.25;3.22;;;;;;;20.27;66.00;101195.38;5115633;28;20019;-36
2021/07/27 11:27:51;;;;;;;3.47;2.70;;;;;;;20.23;66.39;101183.31;5115447;28;20019;-36
2021/07/27 11:30:19;;;;;;;4.38;2.80;;;;;;;20.16;65.87;101173.78;5115978;28;20408;-35
2021/07/27 11:32:46;;;;;;;4.65;2.83;;;;;;;20.38;67.05;101181.56;5115366;28;20068;-36
2021/07/27 11:35:13;;;;;;;3.33;2.53;;;;;;;20.51;64.75;101189.16;5115705;28;20051;-35
2021/07/27 11:37:40;;;;;;;4.22;2.40;;;;;;;20.77;64.24;101184.22;5115580;28;20102;-36
2021/07/27 11:40:06;;;;;;;3.85;3.00;;;;;;;21.01;64.28;101187.00;5115040;28;20065;-36
2021/07/27 11:42:33;;;;;;;4.00;2.95;;;;;;;21.12;64.19;101179.44;5114937;28;20022;-35
2021/07/27 11:45:01;;;;;;;3.72;2.72;;;;;;;21.13;63.31;101179.16;5115639;28;20389;-36